Accueil
METAR-TAF:

METAR-TAF

Aéroports :

Reims, France

Aérodrome de Reims - Prunay

latitude: 49-12-31N, longitude: 004-09-24E, altitude: 95 m

Observation

Le bulletin a été fait il y a 32 minutes, à 02:00 UTC
Vent 12 kt de sud/sud-ouest
Température 9°C
Humidité 81%
Pression 1006 hPa
Visibilité 10 km ou plus
Quelques nuages à une hauteur de 1500 ft
Nuages épars à une hauteur de 3300 ft
Ciel couvert à une hauteur de 11000 ft

METAR: LFQA 010200Z AUTO 20012KT 9999 FEW015 SCT033 OVC110 09/06 Q1006

Heure: 04:32 (02:32 UTC)


TAF: absent

Observations et prévisions météorologiques de plus de 4000 aéroports (messages METAR et TAF).

Les stations disponibles sont représentées par des disques jaunes et rouges sur la carte.

Passer la souris dessus pour voir le nom de la station.

Cliquer dessus pour voir les observations et prévisions météorologiques.

Pour changer de carte: cliquez sur les boutons verts avec une croix noire pour zoomer, sur le bouton vert avec un tiret pour effectuer un zoom arrière, ou sur les flèches vertes pour les cartes adjacentes.


METAR-TAF: